This is the latest recevied weather packets stored in our database for station/object TA3HRJ-12. If no packets are shown the sender has not sent any weather packets the latest 10 day(s).
| Time | Temp. | Humidity | Pressure | Rain* | Wind** | Luminosity | Snow |
|---|---|---|---|---|---|---|---|
| 1778087442 | 18.33° C | 30% | 1028.9 hPa | - | - | - | - |
| 1778086542 | 18.89° C | 29% | 1028.9 hPa | - | - | - | - |
| 1778085642 | 18.89° C | 29% | 1028.7 hPa | - | - | - | - |
| 1778084742 | 20° C | 26% | 1028.7 hPa | - | - | - | - |
| 1778083842 | 22.78° C | 23% | 1028.5 hPa | - | - | - | - |
| 1778082938 | 27.78° C | 20% | 1028.3 hPa | - | - | - | - |
| 1778082038 | 28.33° C | 18% | 1028.3 hPa | - | - | - | - |
| 1778081138 | 28.33° C | 17% | 1028.4 hPa | - | - | - | - |
| 1778080238 | 38.89° C | 12% | 1028.2 hPa | - | - | - | - |
| 1778079338 | 31.67° C | 17% | 1028.3 hPa | - | - | - | - |
| 1778078437 | 25.56° C | 22% | 1028.4 hPa | - | - | - | - |
| 1778077537 | 24.44° C | 23% | 1028.4 hPa | - | - | - | - |
| 1778076637 | 25.56° C | 23% | 1028.5 hPa | - | - | - | - |
| 1778075737 | 25° C | 22% | 1028.4 hPa | - | - | - | - |
| 1778074837 | 23.89° C | 24% | 1028.4 hPa | - | - | - | - |
| 1778073937 | 23.33° C | 24% | 1028.5 hPa | - | - | - | - |
| 1778073037 | 26.67° C | 21% | 1028.4 hPa | - | - | - | - |
| 1778072137 | 25° C | 22% | 1028.5 hPa | - | - | - | - |
| 1778071237 | 23.33° C | 25% | 1028.6 hPa | - | - | - | - |
| 1778070337 | 20.56° C | 30% | 1028.7 hPa | - | - | - | - |
| 1778069437 | 20.56° C | 30% | 1028.7 hPa | - | - | - | - |
| 1778068536 | 20.56° C | 29% | 1028.8 hPa | - | - | - | - |
| 1778067635 | 21.67° C | 28% | 1028.8 hPa | - | - | - | - |
| 1778066735 | 22.22° C | 26% | 1028.8 hPa | - | - | - | - |
| 1778065835 | 22.22° C | 27% | 1028.8 hPa | - | - | - | - |
* Rain since midnight (hover to see other rain measurements)
** Current wind speed in m/s (hover to see current wind gust speed)